sensor_id;sensor_type;location;lat;lon;timestamp;temperature;humidity
16907;DHT22;8570;52.380;4.654;2023-04-01T00:04:29;9.40;99.90
16907;DHT22;8570;52.380;4.654;2023-04-01T00:09:31;9.40;99.90
16907;DHT22;8570;52.380;4.654;2023-04-01T00:14:34;9.30;99.90
16907;DHT22;8570;52.380;4.654;2023-04-01T00:19:37;9.30;99.90
16907;DHT22;8570;52.380;4.654;2023-04-01T00:24:39;9.30;99.90
16907;DHT22;8570;52.380;4.654;2023-04-01T00:29:43;9.30;99.90
16907;DHT22;8570;52.380;4.654;2023-04-01T00:34:45;9.30;99.90
16907;DHT22;8570;52.380;4.654;2023-04-01T00:39:47;9.30;99.90
16907;DHT22;8570;52.380;4.654;2023-04-01T00:44:52;9.30;99.90
16907;DHT22;8570;52.380;4.654;2023-04-01T00:49:55;9.30;99.90
16907;DHT22;8570;52.380;4.654;2023-04-01T00:54:59;9.30;99.90
16907;DHT22;8570;52.380;4.654;2023-04-01T01:00:08;9.30;99.90
16907;DHT22;8570;52.380;4.654;2023-04-01T01:05:12;9.30;99.90
16907;DHT22;8570;52.380;4.654;2023-04-01T01:10:18;9.40;99.90
16907;DHT22;8570;52.380;4.654;2023-04-01T01:15:24;9.40;99.90
16907;DHT22;8570;52.380;4.654;2023-04-01T01:26:34;9.40;99.90
16907;DHT22;8570;52.380;4.654;2023-04-01T01:31:44;9.40;99.90
16907;DHT22;8570;52.380;4.654;2023-04-01T01:36:55;9.40;99.90
16907;DHT22;8570;52.380;4.654;2023-04-01T01:42:02;9.40;99.90
16907;DHT22;8570;52.380;4.654;2023-04-01T01:47:05;9.50;99.90
16907;DHT22;8570;52.380;4.654;2023-04-01T01:52:08;9.50;99.90
16907;DHT22;8570;52.380;4.654;2023-04-01T01:57:11;9.50;99.90
16907;DHT22;8570;52.380;4.654;2023-04-01T02:02:13;9.50;99.90
16907;DHT22;8570;52.380;4.654;2023-04-01T02:07:20;9.50;99.90
16907;DHT22;8570;52.380;4.654;2023-04-01T02:12:24;9.60;99.90
16907;DHT22;8570;52.380;4.654;2023-04-01T02:17:29;9.60;99.90
16907;DHT22;8570;52.380;4.654;2023-04-01T02:22:34;9.60;99.90
16907;DHT22;8570;52.380;4.654;2023-04-01T02:27:37;9.70;99.90
16907;DHT22;8570;52.380;4.654;2023-04-01T02:32:40;9.70;99.90
16907;DHT22;8570;52.380;4.654;2023-04-01T02:37:45;9.70;99.90
16907;DHT22;8570;52.380;4.654;2023-04-01T02:42:49;9.80;99.90
16907;DHT22;8570;52.380;4.654;2023-04-01T02:47:51;9.80;99.90
16907;DHT22;8570;52.380;4.654;2023-04-01T02:52:54;9.80;99.90
16907;DHT22;8570;52.380;4.654;2023-04-01T02:57:56;9.90;99.90
16907;DHT22;8570;52.380;4.654;2023-04-01T03:02:58;9.90;99.90
16907;DHT22;8570;52.380;4.654;2023-04-01T03:08:01;9.90;99.90
16907;DHT22;8570;52.380;4.654;2023-04-01T03:13:04;9.90;99.90
16907;DHT22;8570;52.380;4.654;2023-04-01T03:18:06;10.00;99.90
16907;DHT22;8570;52.380;4.654;2023-04-01T03:23:10;10.00;99.90
16907;DHT22;8570;52.380;4.654;2023-04-01T03:28:27;10.00;99.90
16907;DHT22;8570;52.380;4.654;2023-04-01T03:33:29;9.90;99.90
16907;DHT22;8570;52.380;4.654;2023-04-01T03:38:32;10.00;99.90
16907;DHT22;8570;52.380;4.654;2023-04-01T03:43:34;9.90;99.90
16907;DHT22;8570;52.380;4.654;2023-04-01T03:48:36;9.90;99.90
16907;DHT22;8570;52.380;4.654;2023-04-01T03:53:40;9.90;99.90
16907;DHT22;8570;52.380;4.654;2023-04-01T03:58:43;9.90;99.90
16907;DHT22;8570;52.380;4.654;2023-04-01T04:03:45;9.90;99.90
16907;DHT22;8570;52.380;4.654;2023-04-01T04:08:48;9.90;99.90
16907;DHT22;8570;52.380;4.654;2023-04-01T04:13:50;9.90;99.90
16907;DHT22;8570;52.380;4.654;2023-04-01T04:18:52;9.80;99.90
16907;DHT22;8570;52.380;4.654;2023-04-01T04:23:56;9.80;99.90
16907;DHT22;8570;52.380;4.654;2023-04-01T04:28:58;9.80;99.90
16907;DHT22;8570;52.380;4.654;2023-04-01T04:34:00;9.80;99.90
16907;DHT22;8570;52.380;4.654;2023-04-01T04:39:04;9.80;99.90
16907;DHT22;8570;52.380;4.654;2023-04-01T04:44:06;9.80;99.90
16907;DHT22;8570;52.380;4.654;2023-04-01T04:49:08;9.80;99.90
16907;DHT22;8570;52.380;4.654;2023-04-01T04:54:11;9.80;99.90
16907;DHT22;8570;52.380;4.654;2023-04-01T04:59:13;9.80;99.90
16907;DHT22;8570;52.380;4.654;2023-04-01T05:04:15;9.70;99.90
16907;DHT22;8570;52.380;4.654;2023-04-01T05:09:18;9.70;99.90
16907;DHT22;8570;52.380;4.654;2023-04-01T05:14:20;9.70;99.90
16907;DHT22;8570;52.380;4.654;2023-04-01T05:19:22;9.70;99.90
16907;DHT22;8570;52.380;4.654;2023-04-01T05:24:26;9.70;99.90
16907;DHT22;8570;52.380;4.654;2023-04-01T05:29:27;9.70;99.90
16907;DHT22;8570;52.380;4.654;2023-04-01T05:34:29;9.70;99.90
16907;DHT22;8570;52.380;4.654;2023-04-01T05:39:36;9.60;99.90
16907;DHT22;8570;52.380;4.654;2023-04-01T05:44:37;9.60;99.90
16907;DHT22;8570;52.380;4.654;2023-04-01T05:49:40;9.60;99.90
16907;DHT22;8570;52.380;4.654;2023-04-01T05:54:43;9.50;99.90
16907;DHT22;8570;52.380;4.654;2023-04-01T05:59:45;9.50;99.90
16907;DHT22;8570;52.380;4.654;2023-04-01T06:04:47;9.50;99.90
16907;DHT22;8570;52.380;4.654;2023-04-01T06:09:51;9.50;99.90
16907;DHT22;8570;52.380;4.654;2023-04-01T06:15:02;9.50;99.90
16907;DHT22;8570;52.380;4.654;2023-04-01T06:20:11;9.50;99.90
16907;DHT22;8570;52.380;4.654;2023-04-01T06:25:29;9.50;99.90
16907;DHT22;8570;52.380;4.654;2023-04-01T06:30:39;9.60;99.90
16907;DHT22;8570;52.380;4.654;2023-04-01T06:35:51;9.50;99.90
16907;DHT22;8570;52.380;4.654;2023-04-01T06:41:21;9.50;99.90
16907;DHT22;8570;52.380;4.654;2023-04-01T06:46:31;9.60;99.90
16907;DHT22;8570;52.380;4.654;2023-04-01T06:51:47;9.60;99.90
16907;DHT22;8570;52.380;4.654;2023-04-01T06:56:59;9.60;99.90
16907;DHT22;8570;52.380;4.654;2023-04-01T07:02:10;9.60;99.90
16907;DHT22;8570;52.380;4.654;2023-04-01T07:07:24;9.60;99.90
16907;DHT22;8570;52.380;4.654;2023-04-01T07:12:36;9.70;99.90
16907;DHT22;8570;52.380;4.654;2023-04-01T07:17:41;9.60;99.90
16907;DHT22;8570;52.380;4.654;2023-04-01T07:22:46;9.60;99.90
16907;DHT22;8570;52.380;4.654;2023-04-01T07:27:52;9.60;99.90
16907;DHT22;8570;52.380;4.654;2023-04-01T07:32:59;9.70;99.90
16907;DHT22;8570;52.380;4.654;2023-04-01T07:38:15;9.70;99.90
16907;DHT22;8570;52.380;4.654;2023-04-01T07:43:42;9.70;99.90
16907;DHT22;8570;52.380;4.654;2023-04-01T07:48:50;9.70;99.90
16907;DHT22;8570;52.380;4.654;2023-04-01T07:54:01;9.70;99.90
16907;DHT22;8570;52.380;4.654;2023-04-01T07:59:14;9.80;99.90
16907;DHT22;8570;52.380;4.654;2023-04-01T08:04:37;9.90;99.90
16907;DHT22;8570;52.380;4.654;2023-04-01T08:09:50;9.90;99.90
16907;DHT22;8570;52.380;4.654;2023-04-01T08:15:10;10.00;99.90
16907;DHT22;8570;52.380;4.654;2023-04-01T08:20:33;10.00;99.90
16907;DHT22;8570;52.380;4.654;2023-04-01T08:25:44;10.10;99.90
16907;DHT22;8570;52.380;4.654;2023-04-01T08:30:55;10.10;99.90
16907;DHT22;8570;52.380;4.654;2023-04-01T08:36:05;10.20;99.90
16907;DHT22;8570;52.380;4.654;2023-04-01T08:41:32;10.30;99.90
16907;DHT22;8570;52.380;4.654;2023-04-01T08:47:05;10.30;99.90
16907;DHT22;8570;52.380;4.654;2023-04-01T08:52:25;10.30;99.90
16907;DHT22;8570;52.380;4.654;2023-04-01T08:57:41;10.30;99.90
16907;DHT22;8570;52.380;4.654;2023-04-01T09:03:37;10.40;99.90
16907;DHT22;8570;52.380;4.654;2023-04-01T09:09:10;10.40;99.90
16907;DHT22;8570;52.380;4.654;2023-04-01T09:14:45;10.50;99.90
16907;DHT22;8570;52.380;4.654;2023-04-01T09:25:48;10.60;99.90
16907;DHT22;8570;52.380;4.654;2023-04-01T09:36:38;10.70;99.90
16907;DHT22;8570;52.380;4.654;2023-04-01T09:41:47;10.70;99.90
16907;DHT22;8570;52.380;4.654;2023-04-01T09:47:05;10.70;99.90
16907;DHT22;8570;52.380;4.654;2023-04-01T09:52:26;10.70;99.90
16907;DHT22;8570;52.380;4.654;2023-04-01T09:57:54;10.70;99.90
16907;DHT22;8570;52.380;4.654;2023-04-01T10:03:28;10.80;99.90
16907;DHT22;8570;52.380;4.654;2023-04-01T10:08:55;10.80;99.90
16907;DHT22;8570;52.380;4.654;2023-04-01T10:14:25;10.80;99.90
16907;DHT22;8570;52.380;4.654;2023-04-01T10:20:00;10.80;99.90
16907;DHT22;8570;52.380;4.654;2023-04-01T10:31:27;10.90;99.90
16907;DHT22;8570;52.380;4.654;2023-04-01T10:36:53;11.00;99.90
16907;DHT22;8570;52.380;4.654;2023-04-01T10:48:11;11.00;99.90
16907;DHT22;8570;52.380;4.654;2023-04-01T10:53:58;11.10;99.90
16907;DHT22;8570;52.380;4.654;2023-04-01T11:16:24;11.60;99.90
16907;DHT22;8570;52.380;4.654;2023-04-01T11:21:55;11.70;99.90
16907;DHT22;8570;52.380;4.654;2023-04-01T11:27:08;11.70;99.90
16907;DHT22;8570;52.380;4.654;2023-04-01T11:32:24;11.80;99.90
16907;DHT22;8570;52.380;4.654;2023-04-01T11:37:35;11.90;99.90
16907;DHT22;8570;52.380;4.654;2023-04-01T11:42:42;12.00;99.90
16907;DHT22;8570;52.380;4.654;2023-04-01T11:47:58;12.10;99.90
16907;DHT22;8570;52.380;4.654;2023-04-01T11:53:10;12.20;99.90
16907;DHT22;8570;52.380;4.654;2023-04-01T11:58:55;12.30;99.90
16907;DHT22;8570;52.380;4.654;2023-04-01T12:04:26;12.30;99.90
16907;DHT22;8570;52.380;4.654;2023-04-01T12:09:36;12.20;99.90
16907;DHT22;8570;52.380;4.654;2023-04-01T12:14:44;12.30;99.90
16907;DHT22;8570;52.380;4.654;2023-04-01T12:19:54;12.20;99.90
16907;DHT22;8570;52.380;4.654;2023-04-01T12:25:14;12.20;99.90
16907;DHT22;8570;52.380;4.654;2023-04-01T12:30:35;12.10;99.90
16907;DHT22;8570;52.380;4.654;2023-04-01T12:35:52;12.20;99.90
16907;DHT22;8570;52.380;4.654;2023-04-01T12:41:09;12.20;99.90
16907;DHT22;8570;52.380;4.654;2023-04-01T12:46:15;12.30;99.90
16907;DHT22;8570;52.380;4.654;2023-04-01T12:51:53;12.40;99.90
16907;DHT22;8570;52.380;4.654;2023-04-01T12:57:13;12.40;99.90
16907;DHT22;8570;52.380;4.654;2023-04-01T13:02:25;12.40;99.90
16907;DHT22;8570;52.380;4.654;2023-04-01T13:07:58;12.50;99.90
16907;DHT22;8570;52.380;4.654;2023-04-01T13:13:14;12.50;99.90
16907;DHT22;8570;52.380;4.654;2023-04-01T13:18:30;12.50;99.90
16907;DHT22;8570;52.380;4.654;2023-04-01T13:23:48;12.50;99.90
16907;DHT22;8570;52.380;4.654;2023-04-01T13:28:56;12.50;99.90
16907;DHT22;8570;52.380;4.654;2023-04-01T13:34:15;12.40;99.90
16907;DHT22;8570;52.380;4.654;2023-04-01T13:39:27;12.40;99.90
16907;DHT22;8570;52.380;4.654;2023-04-01T13:44:36;12.30;99.90
16907;DHT22;8570;52.380;4.654;2023-04-01T13:50:23;12.30;99.90
16907;DHT22;8570;52.380;4.654;2023-04-01T13:55:46;12.30;99.90
16907;DHT22;8570;52.380;4.654;2023-04-01T14:00:55;12.30;99.90
16907;DHT22;8570;52.380;4.654;2023-04-01T14:06:25;12.30;99.90
16907;DHT22;8570;52.380;4.654;2023-04-01T14:11:39;12.30;99.90
16907;DHT22;8570;52.380;4.654;2023-04-01T14:17:10;12.30;99.90
16907;DHT22;8570;52.380;4.654;2023-04-01T14:22:24;12.30;99.90
16907;DHT22;8570;52.380;4.654;2023-04-01T14:27:38;12.30;99.90
16907;DHT22;8570;52.380;4.654;2023-04-01T14:32:49;12.30;99.90
16907;DHT22;8570;52.380;4.654;2023-04-01T14:38:24;12.20;99.90
16907;DHT22;8570;52.380;4.654;2023-04-01T14:43:47;12.10;99.90
16907;DHT22;8570;52.380;4.654;2023-04-01T14:48:52;12.10;99.90
16907;DHT22;8570;52.380;4.654;2023-04-01T14:54:03;12.00;99.90
16907;DHT22;8570;52.380;4.654;2023-04-01T14:59:10;12.00;99.90
16907;DHT22;8570;52.380;4.654;2023-04-01T15:04:37;11.90;99.90
16907;DHT22;8570;52.380;4.654;2023-04-01T15:09:46;11.80;99.90
16907;DHT22;8570;52.380;4.654;2023-04-01T15:15:14;11.80;99.90
16907;DHT22;8570;52.380;4.654;2023-04-01T15:20:32;11.60;99.90
16907;DHT22;8570;52.380;4.654;2023-04-01T15:25:48;11.50;99.90
16907;DHT22;8570;52.380;4.654;2023-04-01T15:30:57;11.40;99.90
16907;DHT22;8570;52.380;4.654;2023-04-01T15:36:09;11.40;99.90
16907;DHT22;8570;52.380;4.654;2023-04-01T15:41:15;11.30;99.90
16907;DHT22;8570;52.380;4.654;2023-04-01T15:46:44;11.20;99.90
16907;DHT22;8570;52.380;4.654;2023-04-01T15:52:06;11.20;99.90
16907;DHT22;8570;52.380;4.654;2023-04-01T15:57:15;11.20;99.90
16907;DHT22;8570;52.380;4.654;2023-04-01T16:02:29;11.10;99.90
16907;DHT22;8570;52.380;4.654;2023-04-01T16:08:01;11.00;99.90
16907;DHT22;8570;52.380;4.654;2023-04-01T16:13:19;10.90;99.90
16907;DHT22;8570;52.380;4.654;2023-04-01T16:18:50;10.90;99.90
16907;DHT22;8570;52.380;4.654;2023-04-01T16:23:59;10.80;99.90
16907;DHT22;8570;52.380;4.654;2023-04-01T16:29:10;10.80;99.90
16907;DHT22;8570;52.380;4.654;2023-04-01T16:34:18;10.70;99.90
16907;DHT22;8570;52.380;4.654;2023-04-01T16:39:32;10.70;99.90
16907;DHT22;8570;52.380;4.654;2023-04-01T16:44:49;10.70;99.90
16907;DHT22;8570;52.380;4.654;2023-04-01T16:49:58;10.60;99.90
16907;DHT22;8570;52.380;4.654;2023-04-01T16:55:07;10.60;99.90
16907;DHT22;8570;52.380;4.654;2023-04-01T17:00:24;10.50;99.90
16907;DHT22;8570;52.380;4.654;2023-04-01T17:05:39;10.50;99.90
16907;DHT22;8570;52.380;4.654;2023-04-01T17:10:49;10.40;99.90
16907;DHT22;8570;52.380;4.654;2023-04-01T17:15:58;10.40;99.90
16907;DHT22;8570;52.380;4.654;2023-04-01T17:21:07;10.40;99.90
16907;DHT22;8570;52.380;4.654;2023-04-01T17:26:19;10.40;99.90
16907;DHT22;8570;52.380;4.654;2023-04-01T17:31:41;10.40;99.90
16907;DHT22;8570;52.380;4.654;2023-04-01T17:36:59;10.30;99.90
16907;DHT22;8570;52.380;4.654;2023-04-01T17:42:06;10.30;99.90
16907;DHT22;8570;52.380;4.654;2023-04-01T17:47:29;10.40;99.90
16907;DHT22;8570;52.380;4.654;2023-04-01T17:52:39;10.40;99.90
16907;DHT22;8570;52.380;4.654;2023-04-01T17:57:46;10.30;99.90
16907;DHT22;8570;52.380;4.654;2023-04-01T18:02:57;10.20;99.90
16907;DHT22;8570;52.380;4.654;2023-04-01T18:08:15;10.10;99.90
16907;DHT22;8570;52.380;4.654;2023-04-01T18:13:36;10.00;99.90
16907;DHT22;8570;52.380;4.654;2023-04-01T18:18:50;9.90;99.90
16907;DHT22;8570;52.380;4.654;2023-04-01T18:23:59;9.90;99.90
16907;DHT22;8570;52.380;4.654;2023-04-01T18:29:12;9.80;99.90
16907;DHT22;8570;52.380;4.654;2023-04-01T18:34:18;9.80;99.90
16907;DHT22;8570;52.380;4.654;2023-04-01T18:39:35;9.70;99.90
16907;DHT22;8570;52.380;4.654;2023-04-01T18:44:43;9.60;99.90
16907;DHT22;8570;52.380;4.654;2023-04-01T18:49:53;9.60;99.90
16907;DHT22;8570;52.380;4.654;2023-04-01T18:55:29;9.50;99.90
16907;DHT22;8570;52.380;4.654;2023-04-01T19:00:36;9.50;99.90
16907;DHT22;8570;52.380;4.654;2023-04-01T19:05:40;9.50;99.90
16907;DHT22;8570;52.380;4.654;2023-04-01T19:10:50;9.40;99.90
16907;DHT22;8570;52.380;4.654;2023-04-01T19:15:59;9.40;99.90
16907;DHT22;8570;52.380;4.654;2023-04-01T19:21:09;9.40;99.90
16907;DHT22;8570;52.380;4.654;2023-04-01T19:26:19;9.30;99.90
16907;DHT22;8570;52.380;4.654;2023-04-01T19:31:37;9.20;99.90
16907;DHT22;8570;52.380;4.654;2023-04-01T19:36:45;9.20;99.90
16907;DHT22;8570;52.380;4.654;2023-04-01T19:41:56;9.10;99.90
16907;DHT22;8570;52.380;4.654;2023-04-01T19:47:12;9.10;99.90
16907;DHT22;8570;52.380;4.654;2023-04-01T19:52:21;9.00;99.90
16907;DHT22;8570;52.380;4.654;2023-04-01T19:57:33;9.00;99.90
16907;DHT22;8570;52.380;4.654;2023-04-01T20:03:00;8.90;99.90
16907;DHT22;8570;52.380;4.654;2023-04-01T20:08:11;8.90;99.90
16907;DHT22;8570;52.380;4.654;2023-04-01T20:13:27;8.90;99.90
16907;DHT22;8570;52.380;4.654;2023-04-01T20:18:38;8.80;99.90
16907;DHT22;8570;52.380;4.654;2023-04-01T20:23:43;8.70;99.90
16907;DHT22;8570;52.380;4.654;2023-04-01T20:29:02;8.70;99.90
16907;DHT22;8570;52.380;4.654;2023-04-01T20:34:21;8.60;99.90
16907;DHT22;8570;52.380;4.654;2023-04-01T20:39:45;8.60;99.90
16907;DHT22;8570;52.380;4.654;2023-04-01T20:44:59;8.60;99.90
16907;DHT22;8570;52.380;4.654;2023-04-01T20:50:14;8.50;99.90
16907;DHT22;8570;52.380;4.654;2023-04-01T20:55:53;8.50;99.90
16907;DHT22;8570;52.380;4.654;2023-04-01T21:01:05;8.40;99.90
16907;DHT22;8570;52.380;4.654;2023-04-01T21:06:48;8.40;99.90
16907;DHT22;8570;52.380;4.654;2023-04-01T21:12:01;8.30;99.90
16907;DHT22;8570;52.380;4.654;2023-04-01T21:17:14;8.30;99.90
16907;DHT22;8570;52.380;4.654;2023-04-01T21:27:59;8.20;99.90
16907;DHT22;8570;52.380;4.654;2023-04-01T21:33:15;8.20;99.90
16907;DHT22;8570;52.380;4.654;2023-04-01T21:38:43;8.10;99.90
16907;DHT22;8570;52.380;4.654;2023-04-01T21:49:49;8.10;99.90
16907;DHT22;8570;52.380;4.654;2023-04-01T21:55:22;8.00;99.90
16907;DHT22;8570;52.380;4.654;2023-04-01T22:00:32;8.00;99.90
16907;DHT22;8570;52.380;4.654;2023-04-01T22:05:37;7.90;99.90
16907;DHT22;8570;52.380;4.654;2023-04-01T22:10:44;7.90;99.90
16907;DHT22;8570;52.380;4.654;2023-04-01T22:15:54;7.80;99.90
16907;DHT22;8570;52.380;4.654;2023-04-01T22:21:09;7.80;99.90
16907;DHT22;8570;52.380;4.654;2023-04-01T22:26:19;7.80;99.90
16907;DHT22;8570;52.380;4.654;2023-04-01T22:31:30;7.70;99.90
16907;DHT22;8570;52.380;4.654;2023-04-01T22:36:44;7.70;99.90
16907;DHT22;8570;52.380;4.654;2023-04-01T22:42:00;7.60;99.90
16907;DHT22;8570;52.380;4.654;2023-04-01T22:47:09;7.60;99.90
16907;DHT22;8570;52.380;4.654;2023-04-01T22:52:26;7.50;99.90
16907;DHT22;8570;52.380;4.654;2023-04-01T22:57:38;7.50;99.90
16907;DHT22;8570;52.380;4.654;2023-04-01T23:02:45;7.50;99.90
16907;DHT22;8570;52.380;4.654;2023-04-01T23:07:56;7.50;99.90
16907;DHT22;8570;52.380;4.654;2023-04-01T23:13:04;7.50;99.90
16907;DHT22;8570;52.380;4.654;2023-04-01T23:18:18;7.50;99.90
16907;DHT22;8570;52.380;4.654;2023-04-01T23:23:33;7.40;99.90
16907;DHT22;8570;52.380;4.654;2023-04-01T23:28:45;7.40;99.90
16907;DHT22;8570;52.380;4.654;2023-04-01T23:33:53;7.40;99.90
16907;DHT22;8570;52.380;4.654;2023-04-01T23:38:59;7.40;99.90
16907;DHT22;8570;52.380;4.654;2023-04-01T23:44:05;7.30;99.90
16907;DHT22;8570;52.380;4.654;2023-04-01T23:49:13;7.30;99.90
16907;DHT22;8570;52.380;4.654;2023-04-01T23:54:19;7.30;99.90
16907;DHT22;8570;52.380;4.654;2023-04-01T23:59:30;7.30;99.90
